Pettus, Arkansas
Current Conditions -  °F | °C
As of 4:33 PM on Sunday 23 Nov 2014 (Local Time) from KLRF Reporting Station
Overcast Overcast  
Wind Chill: 61°   Ceiling: 500
Heat Index: 61°   Visibility: 10mi
Dew Point: 61°   Wind: 2mph
Humidity: 100%   Direction: NA
Pressure: 29.35"   Gusts: NA
Location:  34.7557°N, 91.9476°W
Report Text: KLRF 232233Z AUTO VRB02KT 10SM BKN005 OVC025 16/16 A2935 RMK AO2
Loading
Personal Weather Stations






























Interactive Weather Map New forecast layout! Learn more

10-Day Weather Forecast

Advertisements
Track Severe Weather on mobile